Time;durP1;ratioP1;P1;durP2;ratioP2;P2;SDS_P1;SDS_P2;PMS_P1;PMS_P2;Temp;Humidity;BMP_temperature;BMP_pressure;BME280_temperature;BME280_humidity;BME280_pressure;Samples;Min_cycle;Max_cycle;Signal;HPM_P1;HPM_P2
2023/09/29 00:01:59;;;;;;;;;;;24.70;57.70;;;;;;5086394;28;42809;-82
2023/09/29 00:04:27;;;;;;;;;;;24.60;57.20;;;;;;5086525;28;43025;-86
2023/09/29 00:06:53;;;;;;;;;;;24.50;57.40;;;;;;5085823;28;43003;-84
2023/09/29 00:09:28;;;;;;;;;;;24.40;57.40;;;;;;5086257;28;43293;-85
2023/09/29 00:11:53;;;;;;;;;;;24.30;56.30;;;;;;5084569;28;43543;-85
2023/09/29 00:14:19;;;;;;;;;;;24.20;58.10;;;;;;5086230;28;42914;-85
2023/09/29 00:16:45;;;;;;;;;;;24.50;59.70;;;;;;5080262;28;44882;-85
2023/09/29 00:19:10;;;;;;;;;;;24.70;59.80;;;;;;5086320;28;42885;-85
2023/09/29 00:21:36;;;;;;;;;;;24.60;59.00;;;;;;5086131;28;42942;-81
2023/09/29 00:24:01;;;;;;;;;;;24.50;58.80;;;;;;5085843;28;42979;-83
2023/09/29 00:26:27;;;;;;;;;;;24.30;58.00;;;;;;5086703;28;43623;-82
2023/09/29 00:28:52;;;;;;;;;;;24.40;58.10;;;;;;5086302;28;42901;-85
2023/09/29 00:31:18;;;;;;;;;;;24.30;58.20;;;;;;5085296;28;43372;-84
2023/09/29 00:33:43;;;;;;;;;;;24.40;58.20;;;;;;5086478;28;42927;-84
2023/09/29 00:36:09;;;;;;;;;;;24.40;57.70;;;;;;5083768;28;43475;-85
2023/09/29 00:38:35;;;;;;;;;;;24.40;57.80;;;;;;5085012;28;42927;-85
2023/09/29 00:41:01;;;;;;;;;;;24.60;57.80;;;;;;5085403;28;42947;-85
2023/09/29 00:43:27;;;;;;;;;;;24.30;57.70;;;;;;5085020;28;42929;-85
2023/09/29 00:45:53;;;;;;;;;;;24.30;57.60;;;;;;5086046;28;43939;-86
2023/09/29 00:48:19;;;;;;;;;;;24.60;57.50;;;;;;5085309;28;43084;-86
2023/09/29 00:50:45;;;;;;;;;;;24.40;57.40;;;;;;5085459;28;43494;-83
2023/09/29 00:53:13;;;;;;;;;;;24.40;57.60;;;;;;5084957;28;43220;-81
2023/09/29 00:55:44;;;;;;;;;;;24.40;57.80;;;;;;5085320;28;43308;-84
2023/09/29 00:58:12;;;;;;;;;;;24.40;56.20;;;;;;5085605;27;42874;-85
2023/09/29 01:00:40;;;;;;;;;;;24.40;57.10;;;;;;5084632;28;43030;-84
2023/09/29 01:03:08;;;;;;;;;;;24.50;57.60;;;;;;5083904;27;42967;-84
2023/09/29 01:05:36;;;;;;;;;;;24.40;57.70;;;;;;5085701;28;43328;-82
2023/09/29 01:08:08;;;;;;;;;;;24.40;55.70;;;;;;5084335;28;42988;-85
2023/09/29 01:10:37;;;;;;;;;;;24.20;55.80;;;;;;5084639;28;43863;-84
2023/09/29 01:13:02;;;;;;;;;;;24.50;55.80;;;;;;5084276;28;43100;-82
2023/09/29 01:15:28;;;;;;;;;;;24.30;57.20;;;;;;5085149;28;43005;-82
2023/09/29 01:17:54;;;;;;;;;;;24.30;57.60;;;;;;5083882;28;42947;-83
2023/09/29 01:20:29;;;;;;;;;;;24.50;57.70;;;;;;5084188;28;43673;-85
2023/09/29 01:22:56;;;;;;;;;;;24.30;56.30;;;;;;5084036;28;43053;-84
2023/09/29 01:25:22;;;;;;;;;;;24.60;57.80;;;;;;5085152;28;43751;-84
2023/09/29 01:27:48;;;;;;;;;;;24.30;57.00;;;;;;5084577;28;43210;-85
2023/09/29 01:30:13;;;;;;;;;;;24.60;57.40;;;;;;5083846;28;43652;-85
2023/09/29 01:32:40;;;;;;;;;;;24.40;57.80;;;;;;5084061;28;43001;-84
2023/09/29 01:35:06;;;;;;;;;;;24.20;57.70;;;;;;5085304;28;43023;-82
2023/09/29 01:37:31;;;;;;;;;;;24.20;57.50;;;;;;5084903;28;42910;-85
2023/09/29 01:39:57;;;;;;;;;;;24.30;57.70;;;;;;5083856;28;42985;-81
2023/09/29 01:42:22;;;;;;;;;;;24.40;57.50;;;;;;5084293;28;42957;-81
2023/09/29 01:44:49;;;;;;;;;;;24.50;57.50;;;;;;5084128;28;42920;-85
2023/09/29 01:47:14;;;;;;;;;;;24.30;57.50;;;;;;5084658;28;42883;-81
2023/09/29 01:49:40;;;;;;;;;;;24.30;57.50;;;;;;5084832;28;42917;-83
2023/09/29 01:52:06;;;;;;;;;;;24.20;57.20;;;;;;5084920;28;42885;-83
2023/09/29 01:54:31;;;;;;;;;;;24.40;57.60;;;;;;5085013;28;43274;-83
2023/09/29 01:56:57;;;;;;;;;;;24.50;57.70;;;;;;5084627;28;42933;-81
2023/09/29 01:59:22;;;;;;;;;;;24.30;57.50;;;;;;5084918;28;43463;-82
2023/09/29 02:01:48;;;;;;;;;;;24.50;57.40;;;;;;5083283;28;42917;-85
2023/09/29 02:04:14;;;;;;;;;;;24.40;57.10;;;;;;5084809;28;43508;-84
2023/09/29 02:06:40;;;;;;;;;;;24.20;57.40;;;;;;5083572;28;42964;-84
2023/09/29 02:09:09;;;;;;;;;;;24.30;57.40;;;;;;5084239;28;42942;-81
2023/09/29 02:11:35;;;;;;;;;;;24.20;57.00;;;;;;5084730;28;43082;-85
2023/09/29 02:14:04;;;;;;;;;;;24.80;57.60;;;;;;5084264;28;43418;-85
2023/09/29 02:16:29;;;;;;;;;;;24.40;56.70;;;;;;5084883;28;42919;-85
2023/09/29 02:18:55;;;;;;;;;;;24.20;57.10;;;;;;5083140;28;43005;-82
2023/09/29 02:21:27;;;;;;;;;;;24.50;57.20;;;;;;5085056;28;43321;-85
2023/09/29 02:23:55;;;;;;;;;;;24.40;54.70;;;;;;5084358;28;43931;-84
2023/09/29 02:26:22;;;;;;;;;;;24.40;57.30;;;;;;5084536;28;43812;-85
2023/09/29 02:28:48;;;;;;;;;;;24.30;57.10;;;;;;5083658;28;43063;-84
2023/09/29 02:31:14;;;;;;;;;;;24.30;56.90;;;;;;5083508;28;43046;-84
2023/09/29 02:33:40;;;;;;;;;;;24.30;57.00;;;;;;5084664;28;42949;-83
2023/09/29 02:36:06;;;;;;;;;;;24.40;57.30;;;;;;5085257;27;43045;-85
2023/09/29 02:38:31;;;;;;;;;;;24.20;56.90;;;;;;5088173;28;43491;-82
2023/09/29 02:40:59;;;;;;;;;;;24.30;56.90;;;;;;5087546;28;42989;-85
2023/09/29 02:43:24;;;;;;;;;;;24.40;57.00;;;;;;5086678;28;43393;-85
2023/09/29 02:45:50;;;;;;;;;;;24.40;56.90;;;;;;5088548;28;42975;-84
2023/09/29 02:48:15;;;;;;;;;;;24.50;56.90;;;;;;5088119;28;44274;-82
2023/09/29 02:50:41;;;;;;;;;;;24.50;56.70;;;;;;5087817;28;42945;-81
2023/09/29 02:53:07;;;;;;;;;;;24.30;56.70;;;;;;5087846;28;43085;-85
2023/09/29 02:55:33;;;;;;;;;;;24.10;56.50;;;;;;5088220;28;43027;-81
2023/09/29 02:57:59;;;;;;;;;;;24.30;57.30;;;;;;5087524;28;42879;-85
2023/09/29 03:00:27;;;;;;;;;;;24.70;57.10;;;;;;5088040;28;42803;-85
2023/09/29 03:02:52;;;;;;;;;;;24.20;57.00;;;;;;5088152;28;42983;-83
2023/09/29 03:05:20;;;;;;;;;;;24.30;57.20;;;;;;5081589;28;43103;-85
2023/09/29 03:07:46;;;;;;;;;;;24.40;57.10;;;;;;5078976;28;43788;-84
2023/09/29 03:10:13;;;;;;;;;;;24.40;56.90;;;;;;5088047;28;43021;-83
2023/09/29 03:12:38;;;;;;;;;;;24.40;56.20;;;;;;5086523;28;43574;-82
2023/09/29 03:15:07;;;;;;;;;;;24.30;56.80;;;;;;5086647;28;42935;-85
2023/09/29 03:17:34;;;;;;;;;;;24.30;56.40;;;;;;5072152;28;43728;-84
2023/09/29 03:19:59;;;;;;;;;;;24.20;56.90;;;;;;5087086;28;42902;-85
2023/09/29 03:22:25;;;;;;;;;;;24.30;57.60;;;;;;5087538;28;44179;-82
2023/09/29 03:24:51;;;;;;;;;;;24.10;57.00;;;;;;5087305;28;43082;-85
2023/09/29 03:27:18;;;;;;;;;;;24.30;57.10;;;;;;5086025;28;43728;-83
2023/09/29 03:29:43;;;;;;;;;;;24.60;57.00;;;;;;5087185;28;42949;-82
2023/09/29 03:32:09;;;;;;;;;;;24.10;56.80;;;;;;5087584;28;43261;-81
2023/09/29 03:34:34;;;;;;;;;;;24.50;56.80;;;;;;5087020;28;43137;-84
2023/09/29 03:37:00;;;;;;;;;;;24.20;56.80;;;;;;5085481;28;43440;-85
2023/09/29 03:39:25;;;;;;;;;;;24.10;57.00;;;;;;5086948;28;42902;-81
2023/09/29 03:41:51;;;;;;;;;;;24.20;57.20;;;;;;5087031;28;43441;-84
2023/09/29 03:44:16;;;;;;;;;;;24.50;57.00;;;;;;5086334;28;43610;-86
2023/09/29 03:46:43;;;;;;;;;;;24.20;56.70;;;;;;5086791;27;43002;-82
2023/09/29 03:49:12;;;;;;;;;;;24.30;56.70;;;;;;5086523;28;42923;-83
2023/09/29 03:51:38;;;;;;;;;;;24.30;55.20;;;;;;5085885;28;43387;-84
2023/09/29 03:54:04;;;;;;;;;;;24.30;56.90;;;;;;5084366;27;43018;-81
2023/09/29 03:56:29;;;;;;;;;;;24.30;56.60;;;;;;5084390;28;43792;-83
2023/09/29 03:58:58;;;;;;;;;;;24.30;56.90;;;;;;5086464;28;42887;-85
2023/09/29 04:01:25;;;;;;;;;;;24.30;55.20;;;;;;5086526;28;42862;-81
2023/09/29 04:03:50;;;;;;;;;;;24.40;56.80;;;;;;5083132;28;42912;-86
2023/09/29 04:06:16;;;;;;;;;;;24.40;56.90;;;;;;5086028;28;42989;-84
2023/09/29 04:08:41;;;;;;;;;;;24.40;56.90;;;;;;5085797;28;42948;-81
2023/09/29 04:11:07;;;;;;;;;;;24.40;56.30;;;;;;5085559;28;42975;-83
2023/09/29 04:13:33;;;;;;;;;;;24.30;56.80;;;;;;5084729;28;43039;-85
2023/09/29 04:16:08;;;;;;;;;;;24.30;57.00;;;;;;5084184;27;43569;-84
2023/09/29 04:18:33;;;;;;;;;;;24.20;57.10;;;;;;5076028;28;44083;-86
2023/09/29 04:21:02;;;;;;;;;;;24.20;57.10;;;;;;5084670;28;43428;-82
2023/09/29 04:23:28;;;;;;;;;;;24.30;57.10;;;;;;5086145;28;43003;-81
2023/09/29 04:25:54;;;;;;;;;;;24.20;57.00;;;;;;5084225;28;44871;-85
2023/09/29 04:28:19;;;;;;;;;;;24.30;57.00;;;;;;5080170;28;43446;-83
2023/09/29 04:30:45;;;;;;;;;;;24.20;57.10;;;;;;5083466;28;43066;-86
2023/09/29 04:33:10;;;;;;;;;;;24.30;57.30;;;;;;5085606;28;43102;-83
2023/09/29 04:35:36;;;;;;;;;;;24.10;57.10;;;;;;5083039;28;43072;-83
2023/09/29 04:38:02;;;;;;;;;;;24.10;57.20;;;;;;5068363;28;43156;-81
2023/09/29 04:40:27;;;;;;;;;;;23.90;57.10;;;;;;5058027;28;42993;-83
2023/09/29 04:42:54;;;;;;;;;;;24.80;57.90;;;;;;5061769;28;42901;-83
2023/09/29 04:45:19;;;;;;;;;;;24.20;57.40;;;;;;5064182;28;43433;-82
2023/09/29 04:47:45;;;;;;;;;;;23.80;57.30;;;;;;5041165;28;43564;-86
2023/09/29 04:50:11;;;;;;;;;;;23.90;57.70;;;;;;5062723;28;43356;-84
2023/09/29 04:52:36;;;;;;;;;;;23.90;57.60;;;;;;5063806;28;43105;-87
2023/09/29 04:55:02;;;;;;;;;;;23.90;57.40;;;;;;5054708;28;43494;-83
2023/09/29 04:57:28;;;;;;;;;;;23.90;57.40;;;;;;5063846;28;42903;-87
2023/09/29 04:59:54;;;;;;;;;;;23.90;57.50;;;;;;5060824;28;43644;-85
2023/09/29 05:02:19;;;;;;;;;;;24.00;57.00;;;;;;5042126;28;42978;-79
2023/09/29 05:04:45;;;;;;;;;;;23.80;57.50;;;;;;5056914;28;43424;-79
2023/09/29 05:07:12;;;;;;;;;;;23.90;57.40;;;;;;5053818;28;43001;-81
2023/09/29 05:09:37;;;;;;;;;;;23.90;57.30;;;;;;5055685;28;43517;-81
2023/09/29 05:12:04;;;;;;;;;;;23.80;57.30;;;;;;5053002;28;43003;-79
2023/09/29 05:14:29;;;;;;;;;;;23.90;57.30;;;;;;5045687;28;42991;-80
2023/09/29 05:16:55;;;;;;;;;;;23.80;57.20;;;;;;5045792;28;42915;-79
2023/09/29 05:19:20;;;;;;;;;;;23.90;57.40;;;;;;5045468;28;42956;-80
2023/09/29 05:21:46;;;;;;;;;;;23.90;56.90;;;;;;5045284;28;42927;-81
2023/09/29 05:24:11;;;;;;;;;;;23.90;57.50;;;;;;5045302;28;44084;-81
2023/09/29 05:26:37;;;;;;;;;;;23.80;57.50;;;;;;5045794;28;42946;-81
2023/09/29 05:29:02;;;;;;;;;;;23.90;57.70;;;;;;5045184;28;43776;-81
2023/09/29 05:31:28;;;;;;;;;;;23.90;58.00;;;;;;5045400;28;43008;-82
2023/09/29 05:33:54;;;;;;;;;;;23.90;57.80;;;;;;5045727;28;42935;-81
2023/09/29 05:36:20;;;;;;;;;;;24.00;57.70;;;;;;5054024;28;42958;-82
2023/09/29 05:38:46;;;;;;;;;;;23.90;57.70;;;;;;5065265;28;43532;-81
2023/09/29 05:41:11;;;;;;;;;;;23.80;57.60;;;;;;5065556;28;42995;-81
2023/09/29 05:43:37;;;;;;;;;;;23.70;57.50;;;;;;5065318;28;43094;-81
2023/09/29 05:46:02;;;;;;;;;;;23.90;57.70;;;;;;5065235;28;43040;-81
2023/09/29 05:48:28;;;;;;;;;;;23.80;57.10;;;;;;5065049;28;43781;-81
2023/09/29 05:50:53;;;;;;;;;;;23.90;57.90;;;;;;5065586;28;42894;-82
2023/09/29 05:53:19;;;;;;;;;;;23.60;57.70;;;;;;5065589;28;43462;-81
2023/09/29 05:55:45;;;;;;;;;;;23.70;57.80;;;;;;5098063;27;43252;-81
2023/09/29 05:58:10;;;;;;;;;;;23.80;58.00;;;;;;5065723;28;43330;-80
2023/09/29 06:00:36;;;;;;;;;;;23.70;57.40;;;;;;5065105;28;43092;-81
2023/09/29 06:03:02;;;;;;;;;;;23.60;57.80;;;;;;5065057;28;42870;-81
2023/09/29 06:05:28;;;;;;;;;;;24.00;57.90;;;;;;5097761;27;43041;-81
2023/09/29 06:07:54;;;;;;;;;;;23.90;57.90;;;;;;5065080;28;43003;-80
2023/09/29 06:10:20;;;;;;;;;;;23.80;57.40;;;;;;5063810;28;42993;-81
2023/09/29 06:12:45;;;;;;;;;;;23.90;57.90;;;;;;5064231;28;42950;-82
2023/09/29 06:15:11;;;;;;;;;;;23.90;57.80;;;;;;5064711;28;42930;-81
2023/09/29 06:17:37;;;;;;;;;;;24.00;57.30;;;;;;5064480;28;42965;-81
2023/09/29 06:20:04;;;;;;;;;;;23.80;57.70;;;;;;5064630;28;43015;-82
2023/09/29 06:22:29;;;;;;;;;;;24.10;57.70;;;;;;5064409;28;42883;-81
2023/09/29 06:24:55;;;;;;;;;;;24.00;57.70;;;;;;5063838;28;43011;-81
2023/09/29 06:27:20;;;;;;;;;;;24.20;57.80;;;;;;5065573;28;42961;-81
2023/09/29 06:29:49;;;;;;;;;;;23.90;57.90;;;;;;5064663;28;42985;-81
2023/09/29 06:32:16;;;;;;;;;;;24.00;58.00;;;;;;5064527;28;43712;-82
2023/09/29 06:34:41;;;;;;;;;;;24.00;58.20;;;;;;5064592;28;42978;-81
2023/09/29 06:37:08;;;;;;;;;;;24.00;58.30;;;;;;5064493;28;43502;-80
2023/09/29 06:39:34;;;;;;;;;;;24.00;58.30;;;;;;5064838;28;42855;-79
2023/09/29 06:41:59;;;;;;;;;;;24.00;58.60;;;;;;5064773;28;43454;-80
2023/09/29 06:44:25;;;;;;;;;;;24.10;58.40;;;;;;5064513;28;42896;-81
2023/09/29 06:46:50;;;;;;;;;;;24.00;58.40;;;;;;5064804;28;42851;-81
2023/09/29 06:49:16;;;;;;;;;;;23.90;58.30;;;;;;5064654;28;43053;-81
2023/09/29 06:51:41;;;;;;;;;;;24.20;58.60;;;;;;5064629;28;43706;-82
2023/09/29 06:54:07;;;;;;;;;;;24.10;58.30;;;;;;5097101;27;42987;-81
2023/09/29 06:56:32;;;;;;;;;;;24.30;58.60;;;;;;5064305;28;44400;-81
2023/09/29 06:58:59;;;;;;;;;;;24.10;58.10;;;;;;5064737;28;42979;-81
2023/09/29 07:01:26;;;;;;;;;;;24.10;58.00;;;;;;5063718;28;43718;-81
2023/09/29 07:03:52;;;;;;;;;;;24.20;58.50;;;;;;5064288;28;42904;-81
2023/09/29 07:06:18;;;;;;;;;;;24.20;58.50;;;;;;5063955;28;43564;-81
2023/09/29 07:08:44;;;;;;;;;;;24.20;58.40;;;;;;5064835;28;42887;-81
2023/09/29 07:11:09;;;;;;;;;;;24.10;58.40;;;;;;5063782;28;42931;-81
2023/09/29 07:13:35;;;;;;;;;;;24.10;58.40;;;;;;5063862;28;42888;-80
2023/09/29 07:16:01;;;;;;;;;;;24.20;58.70;;;;;;5064210;28;42997;-81
2023/09/29 07:18:27;;;;;;;;;;;24.20;58.60;;;;;;5064169;28;42974;-80
2023/09/29 07:20:53;;;;;;;;;;;24.20;58.60;;;;;;5064829;28;42923;-82
2023/09/29 07:23:19;;;;;;;;;;;24.20;58.80;;;;;;5067526;28;42852;-80
2023/09/29 07:25:45;;;;;;;;;;;24.10;58.90;;;;;;5067222;28;43764;-82
2023/09/29 07:28:16;;;;;;;;;;;24.20;58.80;;;;;;5067514;28;42841;-82
2023/09/29 07:30:42;;;;;;;;;;;24.20;58.90;;;;;;5067011;28;44227;-82
2023/09/29 07:33:08;;;;;;;;;;;24.40;59.00;;;;;;5067003;28;42835;-82
2023/09/29 07:35:34;;;;;;;;;;;24.10;58.90;;;;;;5067430;28;43028;-82
2023/09/29 07:38:00;;;;;;;;;;;24.40;59.00;;;;;;5067508;28;43036;-81
2023/09/29 07:40:26;;;;;;;;;;;24.20;58.90;;;;;;5100077;27;43591;-80
2023/09/29 07:42:51;;;;;;;;;;;24.30;58.50;;;;;;5099932;27;42897;-81
2023/09/29 07:45:17;;;;;;;;;;;24.30;58.50;;;;;;5067374;28;42899;-82
2023/09/29 07:47:43;;;;;;;;;;;24.30;58.80;;;;;;5067495;28;42787;-81
2023/09/29 07:50:09;;;;;;;;;;;24.40;58.40;;;;;;5067038;28;42963;-82
2023/09/29 07:52:37;;;;;;;;;;;24.20;58.50;;;;;;5067950;27;42825;-81
2023/09/29 07:55:06;;;;;;;;;;;24.20;59.00;;;;;;5066763;28;44205;-82
2023/09/29 07:57:32;;;;;;;;;;;24.10;58.60;;;;;;5066589;27;42934;-81
2023/09/29 07:59:58;;;;;;;;;;;24.30;59.10;;;;;;5066731;28;44479;-82
2023/09/29 08:02:26;;;;;;;;;;;24.40;59.00;;;;;;5067305;28;42965;-82
2023/09/29 08:04:52;;;;;;;;;;;24.30;59.10;;;;;;5067161;28;43025;-80
2023/09/29 08:07:18;;;;;;;;;;;24.10;59.50;;;;;;5067183;28;42934;-82
2023/09/29 08:09:44;;;;;;;;;;;24.20;59.10;;;;;;5066595;28;44221;-82
2023/09/29 08:12:09;;;;;;;;;;;24.40;59.30;;;;;;5067094;28;42857;-81
2023/09/29 08:14:35;;;;;;;;;;;24.10;59.20;;;;;;5066906;28;42969;-80
2023/09/29 08:17:01;;;;;;;;;;;24.20;59.30;;;;;;5066782;28;43313;-82
2023/09/29 08:19:28;;;;;;;;;;;24.20;59.40;;;;;;5066769;28;42997;-80
2023/09/29 08:21:54;;;;;;;;;;;24.30;58.90;;;;;;5067268;28;42784;-83
2023/09/29 08:24:19;;;;;;;;;;;24.30;59.10;;;;;;5066901;28;43681;-83
2023/09/29 08:26:45;;;;;;;;;;;24.20;59.50;;;;;;5066977;28;42799;-83
2023/09/29 08:29:15;;;;;;;;;;;24.40;59.60;;;;;;5066586;28;43135;-83
2023/09/29 08:31:41;;;;;;;;;;;24.30;59.50;;;;;;5066656;28;42870;-81
2023/09/29 08:34:07;;;;;;;;;;;24.10;59.40;;;;;;5065719;28;43449;-81
2023/09/29 08:36:32;;;;;;;;;;;24.40;59.70;;;;;;5098373;27;43052;-81
2023/09/29 08:38:58;;;;;;;;;;;24.40;59.80;;;;;;5066293;28;43493;-82
2023/09/29 08:41:28;;;;;;;;;;;24.30;59.20;;;;;;5066037;28;42906;-82
2023/09/29 08:43:54;;;;;;;;;;;24.40;59.70;;;;;;5065644;28;43031;-82
2023/09/29 08:46:20;;;;;;;;;;;24.40;59.70;;;;;;5065588;28;42784;-81
2023/09/29 08:48:46;;;;;;;;;;;24.40;59.60;;;;;;5098418;27;44107;-80
2023/09/29 08:51:12;;;;;;;;;;;24.30;59.00;;;;;;5066760;27;42901;-82
2023/09/29 08:53:39;;;;;;;;;;;24.30;59.30;;;;;;5066502;28;43461;-82
2023/09/29 08:56:12;;;;;;;;;;;24.40;58.70;;;;;;5066591;28;42894;-82
2023/09/29 08:58:38;;;;;;;;;;;24.40;58.70;;;;;;5066657;28;42904;-80
2023/09/29 09:01:04;;;;;;;;;;;24.40;58.10;;;;;;5066486;28;42875;-81
2023/09/29 09:03:29;;;;;;;;;;;24.30;58.10;;;;;;5066294;28;42943;-81
2023/09/29 09:05:55;;;;;;;;;;;24.50;57.90;;;;;;5065880;28;42880;-81
2023/09/29 09:08:21;;;;;;;;;;;24.40;58.00;;;;;;5066207;28;44233;-82
2023/09/29 09:10:47;;;;;;;;;;;24.50;57.20;;;;;;5065798;28;43002;-82
2023/09/29 09:13:12;;;;;;;;;;;24.40;57.30;;;;;;5065007;28;43579;-81
2023/09/29 09:15:38;;;;;;;;;;;24.50;57.00;;;;;;5065952;28;42971;-81
2023/09/29 09:18:04;;;;;;;;;;;24.40;56.70;;;;;;5065630;28;43017;-82
2023/09/29 09:20:29;;;;;;;;;;;24.40;55.00;;;;;;5065506;28;42927;-82
2023/09/29 09:22:57;;;;;;;;;;;24.60;56.00;;;;;;5064891;28;43594;-81
2023/09/29 09:25:32;;;;;;;;;;;24.60;56.10;;;;;;5065523;28;42989;-82
2023/09/29 09:27:58;;;;;;;;;;;24.40;53.90;;;;;;5065607;28;44288;-83
2023/09/29 09:30:24;;;;;;;;;;;24.50;55.20;;;;;;5065574;28;43065;-82
2023/09/29 09:32:50;;;;;;;;;;;24.40;56.00;;;;;;5065704;28;43417;-82
2023/09/29 09:35:25;;;;;;;;;;;24.40;55.40;;;;;;5097975;27;43060;-82
2023/09/29 09:37:51;;;;;;;;;;;24.40;53.30;;;;;;5065774;28;43485;-82
2023/09/29 09:40:18;;;;;;;;;;;24.30;55.50;;;;;;5065927;28;42848;-82
2023/09/29 09:42:44;;;;;;;;;;;24.40;55.00;;;;;;5065533;28;42944;-82
2023/09/29 09:45:11;;;;;;;;;;;24.60;54.60;;;;;;5065503;28;43036;-82
2023/09/29 09:47:38;;;;;;;;;;;24.40;55.00;;;;;;5065711;28;43415;-82
2023/09/29 09:50:05;;;;;;;;;;;24.50;54.90;;;;;;5065355;28;42858;-82
2023/09/29 09:52:31;;;;;;;;;;;24.70;54.10;;;;;;5064636;27;43098;-82
2023/09/29 09:54:58;;;;;;;;;;;24.60;54.30;;;;;;5064817;28;43085;-82
2023/09/29 09:57:29;;;;;;;;;;;24.60;54.90;;;;;;5065507;28;43009;-82
2023/09/29 09:59:54;;;;;;;;;;;24.40;54.80;;;;;;5065402;28;42871;-80
2023/09/29 10:02:21;;;;;;;;;;;24.50;55.00;;;;;;5064516;28;42895;-83
2023/09/29 10:04:48;;;;;;;;;;;24.50;55.00;;;;;;5064474;28;42957;-81
2023/09/29 10:07:14;;;;;;;;;;;24.40;55.10;;;;;;5064674;28;43787;-83
2023/09/29 10:09:42;;;;;;;;;;;24.40;54.70;;;;;;5064834;28;43048;-82
2023/09/29 10:12:09;;;;;;;;;;;24.50;54.70;;;;;;5064237;28;43447;-83
2023/09/29 10:14:42;;;;;;;;;;;24.40;54.70;;;;;;5065011;28;42977;-82
2023/09/29 10:17:07;;;;;;;;;;;24.40;52.70;;;;;;5065655;28;43074;-81
2023/09/29 10:19:39;;;;;;;;;;;24.40;54.60;;;;;;5065021;28;42974;-80
2023/09/29 10:22:08;;;;;;;;;;;24.60;52.90;;;;;;5064500;28;43005;-82
2023/09/29 10:24:34;;;;;;;;;;;24.60;52.70;;;;;;5064690;28;43109;-82
2023/09/29 10:27:03;;;;;;;;;;;24.40;54.20;;;;;;5064762;28;42944;-81
2023/09/29 10:29:29;;;;;;;;;;;24.40;54.60;;;;;;5065004;28;42978;-82
2023/09/29 10:32:11;;;;;;;;;;;24.50;54.90;;;;;;5064535;28;43056;-81
2023/09/29 10:34:37;;;;;;;;;;;24.60;52.90;;;;;;5064818;28;42947;-81
2023/09/29 10:37:03;;;;;;;;;;;24.50;54.40;;;;;;5064043;28;42958;-82
2023/09/29 10:39:29;;;;;;;;;;;24.60;54.80;;;;;;5064558;28;43023;-81
2023/09/29 10:42:15;;;;;;;;;;;24.60;54.30;;;;;;5064731;28;43493;-81
2023/09/29 10:44:52;;;;;;;;;;;24.70;52.80;;;;;;5064947;28;42981;-81
2023/09/29 10:47:32;;;;;;;;;;;24.70;52.70;;;;;;5097075;27;43612;-81
2023/09/29 10:50:05;;;;;;;;;;;24.50;52.70;;;;;;5063281;28;43055;-81
2023/09/29 10:52:30;;;;;;;;;;;24.80;52.60;;;;;;5064715;28;44198;-80
2023/09/29 10:54:59;;;;;;;;;;;24.60;54.00;;;;;;5064520;28;42924;-83
2023/09/29 10:57:28;;;;;;;;;;;24.70;53.10;;;;;;5099827;27;42970;-81
2023/09/29 10:59:59;;;;;;;;;;;24.60;52.60;;;;;;5068148;28;42773;-82
2023/09/29 11:02:34;;;;;;;;;;;24.60;54.80;;;;;;5067485;28;44416;-82
2023/09/29 11:05:20;;;;;;;;;;;24.60;54.20;;;;;;5068170;28;42933;-82
2023/09/29 11:07:50;;;;;;;;;;;24.70;53.60;;;;;;5067512;28;43758;-82
2023/09/29 11:10:17;;;;;;;;;;;24.90;52.40;;;;;;5067850;28;43237;-82
2023/09/29 11:12:46;;;;;;;;;;;24.70;53.60;;;;;;5100390;27;42855;-81
2023/09/29 11:15:13;;;;;;;;;;;24.70;52.30;;;;;;5067940;28;42819;-82
2023/09/29 11:17:56;;;;;;;;;;;24.70;53.80;;;;;;5067303;28;42859;-82
2023/09/29 11:20:29;;;;;;;;;;;24.50;52.00;;;;;;5067600;28;43009;-82
2023/09/29 11:23:06;;;;;;;;;;;24.80;52.70;;;;;;5067742;28;42784;-80
2023/09/29 11:25:32;;;;;;;;;;;24.80;52.10;;;;;;5067780;28;42845;-81
2023/09/29 11:27:58;;;;;;;;;;;24.90;54.30;;;;;;5067525;28;42796;-82
2023/09/29 11:30:24;;;;;;;;;;;24.70;54.20;;;;;;5067476;28;42902;-81
2023/09/29 11:32:51;;;;;;;;;;;24.70;53.70;;;;;;5066906;28;43524;-82
2023/09/29 11:35:18;;;;;;;;;;;24.70;53.90;;;;;;5067220;28;43222;-82
2023/09/29 11:37:44;;;;;;;;;;;24.70;53.60;;;;;;5066735;28;44243;-81
2023/09/29 11:40:13;;;;;;;;;;;24.90;54.40;;;;;;5071559;28;42897;-81
2023/09/29 11:42:39;;;;;;;;;;;24.80;52.30;;;;;;5067222;28;43697;-81
2023/09/29 11:45:08;;;;;;;;;;;24.80;53.80;;;;;;5085893;28;43011;-81
2023/09/29 11:47:34;;;;;;;;;;;23.60;52.40;;;;;;5084147;28;43200;-82
2023/09/29 11:50:00;;;;;;;;;;;24.70;53.90;;;;;;5086493;28;42936;-81
2023/09/29 11:52:26;;;;;;;;;;;24.90;53.90;;;;;;5086928;28;44087;-82
2023/09/29 11:54:52;;;;;;;;;;;24.60;53.60;;;;;;5083808;28;43177;-82
2023/09/29 11:57:17;;;;;;;;;;;24.80;53.90;;;;;;5083598;28;42956;-82
2023/09/29 11:59:43;;;;;;;;;;;24.90;54.30;;;;;;5086316;28;42873;-82
2023/09/29 12:02:08;;;;;;;;;;;24.90;53.40;;;;;;5086214;28;43731;-80
2023/09/29 12:04:34;;;;;;;;;;;25.10;54.00;;;;;;5086564;28;42793;-80
2023/09/29 12:06:59;;;;;;;;;;;24.80;53.60;;;;;;5085539;27;42929;-82
2023/09/29 12:09:25;;;;;;;;;;;24.90;54.20;;;;;;5086051;28;42854;-81
2023/09/29 12:11:51;;;;;;;;;;;24.70;54.00;;;;;;5110212;27;42830;-82
2023/09/29 12:14:16;;;;;;;;;;;25.00;53.20;;;;;;5094471;27;42976;-82
2023/09/29 12:16:42;;;;;;;;;;;24.60;52.90;;;;;;5095333;27;43450;-81
2023/09/29 12:19:08;;;;;;;;;;;25.00;53.00;;;;;;5096707;27;42791;-82
2023/09/29 12:21:33;;;;;;;;;;;24.80;53.00;;;;;;5095543;27;42953;-82
2023/09/29 12:23:59;;;;;;;;;;;24.80;53.30;;;;;;5094375;27;42945;-82
2023/09/29 12:26:24;;;;;;;;;;;24.90;53.90;;;;;;5096632;27;44169;-81
2023/09/29 12:28:50;;;;;;;;;;;24.70;53.90;;;;;;5095064;27;42934;-83
2023/09/29 12:31:16;;;;;;;;;;;25.10;54.10;;;;;;5095094;27;44868;-82
2023/09/29 12:33:42;;;;;;;;;;;24.80;53.80;;;;;;5095780;27;42749;-82
2023/09/29 12:36:08;;;;;;;;;;;24.80;53.70;;;;;;5096851;27;43357;-81
2023/09/29 12:38:33;;;;;;;;;;;24.90;53.50;;;;;;5096719;27;42851;-82
2023/09/29 12:40:59;;;;;;;;;;;24.90;54.30;;;;;;5094727;27;42952;-83
2023/09/29 12:43:24;;;;;;;;;;;24.80;54.60;;;;;;5095153;27;43167;-81
2023/09/29 12:45:50;;;;;;;;;;;24.90;54.20;;;;;;5097308;27;43593;-81
2023/09/29 12:48:15;;;;;;;;;;;24.70;53.10;;;;;;5092679;27;43099;-81
2023/09/29 12:50:41;;;;;;;;;;;25.00;53.40;;;;;;5094117;27;42895;-81
2023/09/29 12:53:06;;;;;;;;;;;24.80;53.30;;;;;;5083165;28;43050;-83
2023/09/29 12:55:32;;;;;;;;;;;25.40;53.60;;;;;;5085707;28;43623;-83
2023/09/29 12:58:04;;;;;;;;;;;24.80;53.20;;;;;;5086171;28;42846;-81
2023/09/29 13:00:34;;;;;;;;;;;24.90;51.00;;;;;;5079289;28;42949;-83
2023/09/29 13:03:04;;;;;;;;;;;24.90;53.20;;;;;;5084991;28;43085;-83
2023/09/29 13:05:35;;;;;;;;;;;25.10;53.20;;;;;;5081938;27;43142;-82
2023/09/29 13:08:03;;;;;;;;;;;25.00;53.40;;;;;;5086515;28;42937;-86
2023/09/29 13:10:31;;;;;;;;;;;24.70;53.30;;;;;;5085506;28;44373;-88
2023/09/29 13:12:56;;;;;;;;;;;24.80;53.40;;;;;;5118485;27;43354;-88
2023/09/29 13:15:22;;;;;;;;;;;25.00;53.30;;;;;;5086020;28;43024;-86
2023/09/29 13:17:48;;;;;;;;;;;24.90;54.90;;;;;;5084650;28;42964;-87
2023/09/29 13:20:13;;;;;;;;;;;25.00;55.30;;;;;;5086037;27;43930;-84
2023/09/29 13:22:39;;;;;;;;;;;24.40;55.20;;;;;;5086036;28;42893;-84
2023/09/29 13:25:05;;;;;;;;;;;25.20;55.20;;;;;;5085858;28;44228;-87
2023/09/29 13:27:33;;;;;;;;;;;25.10;54.70;;;;;;5083283;28;43011;-88
2023/09/29 13:29:59;;;;;;;;;;;24.80;53.40;;;;;;5084676;28;43055;-88
2023/09/29 13:32:24;;;;;;;;;;;24.90;54.50;;;;;;5082754;28;42938;-87
2023/09/29 13:34:51;;;;;;;;;;;25.10;54.60;;;;;;5085813;28;43927;-88
2023/09/29 13:37:18;;;;;;;;;;;24.90;55.50;;;;;;5091234;27;42917;-87
2023/09/29 13:39:45;;;;;;;;;;;25.10;55.90;;;;;;5097817;27;43733;-84
2023/09/29 13:42:10;;;;;;;;;;;25.10;55.30;;;;;;5076283;28;42909;-89
2023/09/29 13:44:36;;;;;;;;;;;25.10;55.40;;;;;;5074921;28;43634;-84
2023/09/29 13:47:02;;;;;;;;;;;24.90;55.50;;;;;;5075672;28;42874;-83
2023/09/29 13:49:27;;;;;;;;;;;25.00;55.80;;;;;;5073369;28;43006;-84
2023/09/29 13:51:53;;;;;;;;;;;25.00;55.20;;;;;;5074551;28;42914;-88
2023/09/29 13:54:19;;;;;;;;;;;25.10;55.70;;;;;;5080848;27;43481;-86
2023/09/29 13:56:45;;;;;;;;;;;25.00;55.20;;;;;;5079068;28;42992;-83
2023/09/29 13:59:11;;;;;;;;;;;25.00;55.40;;;;;;5075259;28;43053;-84
2023/09/29 14:01:37;;;;;;;;;;;25.00;55.60;;;;;;5074293;28;43041;-84
2023/09/29 14:04:03;;;;;;;;;;;24.70;55.90;;;;;;5055248;28;43517;-83
2023/09/29 14:06:29;;;;;;;;;;;24.90;55.30;;;;;;5075691;28;43113;-88
2023/09/29 14:08:54;;;;;;;;;;;25.00;55.30;;;;;;5083326;28;43454;-86
2023/09/29 14:11:20;;;;;;;;;;;25.00;55.70;;;;;;5085058;28;42907;-88
2023/09/29 14:13:46;;;;;;;;;;;25.10;55.90;;;;;;5085523;28;43907;-88